sensor_id;sensor_type;location;lat;lon;timestamp;temperature;humidity
63047;DHT22;62025;39.238;9.126;2022-11-18T00:01:08;19.60;82.20
63047;DHT22;62025;39.238;9.126;2022-11-18T00:03:35;19.60;82.20
63047;DHT22;62025;39.238;9.126;2022-11-18T00:06:01;19.50;82.50
63047;DHT22;62025;39.238;9.126;2022-11-18T00:08:28;19.50;82.40
63047;DHT22;62025;39.238;9.126;2022-11-18T00:10:54;19.50;82.60
63047;DHT22;62025;39.238;9.126;2022-11-18T00:13:20;19.40;83.20
63047;DHT22;62025;39.238;9.126;2022-11-18T00:16:07;19.30;83.60
63047;DHT22;62025;39.238;9.126;2022-11-18T00:18:37;19.40;83.50
63047;DHT22;62025;39.238;9.126;2022-11-18T00:21:08;19.40;83.50
63047;DHT22;62025;39.238;9.126;2022-11-18T00:23:36;19.30;83.60
63047;DHT22;62025;39.238;9.126;2022-11-18T00:26:12;19.30;83.90
63047;DHT22;62025;39.238;9.126;2022-11-18T00:28:39;19.40;83.40
63047;DHT22;62025;39.238;9.126;2022-11-18T00:31:11;19.40;83.70
63047;DHT22;62025;39.238;9.126;2022-11-18T00:33:39;19.30;83.90
63047;DHT22;62025;39.238;9.126;2022-11-18T00:36:08;19.30;83.80
63047;DHT22;62025;39.238;9.126;2022-11-18T00:38:36;19.60;83.00
63047;DHT22;62025;39.238;9.126;2022-11-18T00:41:09;19.50;83.60
63047;DHT22;62025;39.238;9.126;2022-11-18T00:43:36;19.40;84.10
63047;DHT22;62025;39.238;9.126;2022-11-18T00:46:03;19.40;83.90
63047;DHT22;62025;39.238;9.126;2022-11-18T00:48:30;19.40;84.30
63047;DHT22;62025;39.238;9.126;2022-11-18T00:50:58;19.30;84.50
63047;DHT22;62025;39.238;9.126;2022-11-18T00:53:41;19.40;84.00
63047;DHT22;62025;39.238;9.126;2022-11-18T00:56:08;19.30;84.40
63047;DHT22;62025;39.238;9.126;2022-11-18T00:58:34;19.30;84.50
63047;DHT22;62025;39.238;9.126;2022-11-18T01:01:01;19.30;84.40
63047;DHT22;62025;39.238;9.126;2022-11-18T01:03:28;19.30;84.50
63047;DHT22;62025;39.238;9.126;2022-11-18T01:05:54;19.30;84.20
63047;DHT22;62025;39.238;9.126;2022-11-18T01:08:21;19.40;83.70
63047;DHT22;62025;39.238;9.126;2022-11-18T01:10:48;19.40;84.00
63047;DHT22;62025;39.238;9.126;2022-11-18T01:13:17;19.30;83.90
63047;DHT22;62025;39.238;9.126;2022-11-18T01:15:49;19.20;84.60
63047;DHT22;62025;39.238;9.126;2022-11-18T01:18:27;19.40;83.60
63047;DHT22;62025;39.238;9.126;2022-11-18T01:20:59;19.40;83.50
63047;DHT22;62025;39.238;9.126;2022-11-18T01:23:26;19.50;83.30
63047;DHT22;62025;39.238;9.126;2022-11-18T01:25:53;19.60;83.00
63047;DHT22;62025;39.238;9.126;2022-11-18T01:28:19;19.50;83.20
63047;DHT22;62025;39.238;9.126;2022-11-18T01:30:45;19.40;83.80
63047;DHT22;62025;39.238;9.126;2022-11-18T01:33:12;19.40;83.90
63047;DHT22;62025;39.238;9.126;2022-11-18T01:35:42;19.50;83.50
63047;DHT22;62025;39.238;9.126;2022-11-18T01:38:11;19.50;83.30
63047;DHT22;62025;39.238;9.126;2022-11-18T01:40:38;19.60;82.80
63047;DHT22;62025;39.238;9.126;2022-11-18T01:43:13;19.60;82.70
63047;DHT22;62025;39.238;9.126;2022-11-18T01:45:43;19.60;82.40
63047;DHT22;62025;39.238;9.126;2022-11-18T01:48:25;19.70;82.20
63047;DHT22;62025;39.238;9.126;2022-11-18T01:51:06;19.60;82.20
63047;DHT22;62025;39.238;9.126;2022-11-18T01:53:39;19.60;82.10
63047;DHT22;62025;39.238;9.126;2022-11-18T01:56:14;19.70;82.00
63047;DHT22;62025;39.238;9.126;2022-11-18T01:59:10;19.70;82.10
63047;DHT22;62025;39.238;9.126;2022-11-18T02:01:39;19.70;82.10
63047;DHT22;62025;39.238;9.126;2022-11-18T02:04:06;19.70;82.00
63047;DHT22;62025;39.238;9.126;2022-11-18T02:06:34;19.70;81.90
63047;DHT22;62025;39.238;9.126;2022-11-18T02:09:01;19.70;82.00
63047;DHT22;62025;39.238;9.126;2022-11-18T02:11:28;19.70;82.10
63047;DHT22;62025;39.238;9.126;2022-11-18T02:14:14;19.70;82.30
63047;DHT22;62025;39.238;9.126;2022-11-18T02:31:24;19.60;82.20
63047;DHT22;62025;39.238;9.126;2022-11-18T02:34:02;19.60;82.00
63047;DHT22;62025;39.238;9.126;2022-11-18T02:36:39;19.60;82.10
63047;DHT22;62025;39.238;9.126;2022-11-18T02:39:16;19.60;82.30
63047;DHT22;62025;39.238;9.126;2022-11-18T02:41:50;19.70;82.30
63047;DHT22;62025;39.238;9.126;2022-11-18T02:44:20;19.70;82.20
63047;DHT22;62025;39.238;9.126;2022-11-18T02:46:54;19.60;82.80
63047;DHT22;62025;39.238;9.126;2022-11-18T02:49:28;19.50;83.00
63047;DHT22;62025;39.238;9.126;2022-11-18T02:51:58;19.60;82.80
63047;DHT22;62025;39.238;9.126;2022-11-18T02:54:25;19.60;82.50
63047;DHT22;62025;39.238;9.126;2022-11-18T02:56:53;19.70;82.40
63047;DHT22;62025;39.238;9.126;2022-11-18T02:59:20;19.70;82.60
63047;DHT22;62025;39.238;9.126;2022-11-18T03:01:46;19.70;82.40
63047;DHT22;62025;39.238;9.126;2022-11-18T03:04:13;19.60;82.40
63047;DHT22;62025;39.238;9.126;2022-11-18T03:06:42;19.60;82.80
63047;DHT22;62025;39.238;9.126;2022-11-18T03:09:26;19.50;83.00
63047;DHT22;62025;39.238;9.126;2022-11-18T03:12:09;19.60;83.10
63047;DHT22;62025;39.238;9.126;2022-11-18T03:14:45;19.70;82.70
63047;DHT22;62025;39.238;9.126;2022-11-18T03:20:33;19.70;82.70
63047;DHT22;62025;39.238;9.126;2022-11-18T03:25:49;19.70;82.80
63047;DHT22;62025;39.238;9.126;2022-11-18T03:28:52;19.70;82.80
63047;DHT22;62025;39.238;9.126;2022-11-18T03:33:51;19.70;82.90
63047;DHT22;62025;39.238;9.126;2022-11-18T03:36:23;19.70;82.80
63047;DHT22;62025;39.238;9.126;2022-11-18T03:38:56;19.60;83.30
63047;DHT22;62025;39.238;9.126;2022-11-18T03:41:25;19.60;83.60
63047;DHT22;62025;39.238;9.126;2022-11-18T03:44:00;19.60;83.40
63047;DHT22;62025;39.238;9.126;2022-11-18T03:49:13;19.60;83.70
63047;DHT22;62025;39.238;9.126;2022-11-18T03:51:49;19.60;83.60
63047;DHT22;62025;39.238;9.126;2022-11-18T03:54:29;19.60;83.50
63047;DHT22;62025;39.238;9.126;2022-11-18T03:57:02;19.60;83.70
63047;DHT22;62025;39.238;9.126;2022-11-18T04:02:39;19.60;83.50
63047;DHT22;62025;39.238;9.126;2022-11-18T04:05:08;19.60;83.70
63047;DHT22;62025;39.238;9.126;2022-11-18T04:07:42;19.60;83.60
63047;DHT22;62025;39.238;9.126;2022-11-18T04:10:20;19.60;83.60
63047;DHT22;62025;39.238;9.126;2022-11-18T04:13:12;19.60;83.70
63047;DHT22;62025;39.238;9.126;2022-11-18T04:15:42;19.60;83.60
63047;DHT22;62025;39.238;9.126;2022-11-18T04:18:09;19.60;83.40
63047;DHT22;62025;39.238;9.126;2022-11-18T04:20:36;19.70;83.30
63047;DHT22;62025;39.238;9.126;2022-11-18T04:23:03;19.70;83.50
63047;DHT22;62025;39.238;9.126;2022-11-18T04:25:30;19.60;83.80
63047;DHT22;62025;39.238;9.126;2022-11-18T04:27:56;19.60;84.00
63047;DHT22;62025;39.238;9.126;2022-11-18T04:30:22;19.60;83.90
63047;DHT22;62025;39.238;9.126;2022-11-18T04:32:48;19.60;84.00
63047;DHT22;62025;39.238;9.126;2022-11-18T04:35:14;19.60;84.00
63047;DHT22;62025;39.238;9.126;2022-11-18T04:37:41;19.60;83.90
63047;DHT22;62025;39.238;9.126;2022-11-18T04:40:08;19.60;83.70
63047;DHT22;62025;39.238;9.126;2022-11-18T04:42:34;19.70;83.90
63047;DHT22;62025;39.238;9.126;2022-11-18T04:45:01;19.60;83.90
63047;DHT22;62025;39.238;9.126;2022-11-18T04:47:27;19.60;84.00
63047;DHT22;62025;39.238;9.126;2022-11-18T04:49:53;19.70;83.80
63047;DHT22;62025;39.238;9.126;2022-11-18T04:52:19;19.60;84.00
63047;DHT22;62025;39.238;9.126;2022-11-18T04:54:45;19.70;83.70
63047;DHT22;62025;39.238;9.126;2022-11-18T04:57:11;19.60;84.10
63047;DHT22;62025;39.238;9.126;2022-11-18T04:59:38;19.60;83.70
63047;DHT22;62025;39.238;9.126;2022-11-18T05:02:04;19.70;83.90
63047;DHT22;62025;39.238;9.126;2022-11-18T05:04:32;19.70;83.50
63047;DHT22;62025;39.238;9.126;2022-11-18T05:07:00;19.70;83.70
63047;DHT22;62025;39.238;9.126;2022-11-18T05:09:27;19.70;83.80
63047;DHT22;62025;39.238;9.126;2022-11-18T05:11:54;19.80;83.50
63047;DHT22;62025;39.238;9.126;2022-11-18T05:14:39;19.70;83.60
63047;DHT22;62025;39.238;9.126;2022-11-18T05:17:07;19.70;83.70
63047;DHT22;62025;39.238;9.126;2022-11-18T05:19:35;19.70;83.70
63047;DHT22;62025;39.238;9.126;2022-11-18T05:22:02;19.70;83.60
63047;DHT22;62025;39.238;9.126;2022-11-18T05:24:28;19.70;83.20
63047;DHT22;62025;39.238;9.126;2022-11-18T05:26:54;19.70;83.40
63047;DHT22;62025;39.238;9.126;2022-11-18T05:29:21;19.80;83.20
63047;DHT22;62025;39.238;9.126;2022-11-18T05:31:48;19.70;83.30
63047;DHT22;62025;39.238;9.126;2022-11-18T05:34:15;19.80;83.20
63047;DHT22;62025;39.238;9.126;2022-11-18T05:36:41;19.80;83.20
63047;DHT22;62025;39.238;9.126;2022-11-18T05:39:07;19.70;83.50
63047;DHT22;62025;39.238;9.126;2022-11-18T05:41:33;19.70;83.40
63047;DHT22;62025;39.238;9.126;2022-11-18T05:44:18;19.70;83.80
63047;DHT22;62025;39.238;9.126;2022-11-18T05:46:44;19.70;83.80
63047;DHT22;62025;39.238;9.126;2022-11-18T05:49:10;19.60;84.00
63047;DHT22;62025;39.238;9.126;2022-11-18T05:51:36;19.60;84.30
63047;DHT22;62025;39.238;9.126;2022-11-18T05:54:04;19.60;84.40
63047;DHT22;62025;39.238;9.126;2022-11-18T05:56:43;19.60;84.50
63047;DHT22;62025;39.238;9.126;2022-11-18T05:59:12;19.70;84.80
63047;DHT22;62025;39.238;9.126;2022-11-18T06:04:08;19.60;85.50
63047;DHT22;62025;39.238;9.126;2022-11-18T06:06:48;19.70;85.90
63047;DHT22;62025;39.238;9.126;2022-11-18T06:09:17;19.70;85.90
63047;DHT22;62025;39.238;9.126;2022-11-18T06:11:52;19.70;86.10
63047;DHT22;62025;39.238;9.126;2022-11-18T06:14:37;19.60;86.30
63047;DHT22;62025;39.238;9.126;2022-11-18T06:17:21;19.60;86.50
63047;DHT22;62025;39.238;9.126;2022-11-18T06:19:51;19.60;86.80
63047;DHT22;62025;39.238;9.126;2022-11-18T06:22:17;19.70;86.90
63047;DHT22;62025;39.238;9.126;2022-11-18T06:24:44;19.70;86.80
63047;DHT22;62025;39.238;9.126;2022-11-18T06:27:10;19.70;86.80
63047;DHT22;62025;39.238;9.126;2022-11-18T06:29:37;19.80;86.50
63047;DHT22;62025;39.238;9.126;2022-11-18T06:32:03;19.80;86.40
63047;DHT22;62025;39.238;9.126;2022-11-18T06:34:29;19.80;86.40
63047;DHT22;62025;39.238;9.126;2022-11-18T06:36:55;19.80;86.40
63047;DHT22;62025;39.238;9.126;2022-11-18T06:39:21;19.90;86.20
63047;DHT22;62025;39.238;9.126;2022-11-18T06:41:47;19.90;86.00
63047;DHT22;62025;39.238;9.126;2022-11-18T06:44:14;19.90;85.70
63047;DHT22;62025;39.238;9.126;2022-11-18T06:46:40;19.80;85.50
63047;DHT22;62025;39.238;9.126;2022-11-18T06:49:22;19.90;85.00
63047;DHT22;62025;39.238;9.126;2022-11-18T06:51:48;20.10;84.40
63047;DHT22;62025;39.238;9.126;2022-11-18T06:54:14;20.30;83.70
63047;DHT22;62025;39.238;9.126;2022-11-18T06:56:40;20.30;83.30
63047;DHT22;62025;39.238;9.126;2022-11-18T06:59:07;20.40;82.70
63047;DHT22;62025;39.238;9.126;2022-11-18T07:01:38;20.30;82.40
63047;DHT22;62025;39.238;9.126;2022-11-18T07:04:05;20.30;82.60
63047;DHT22;62025;39.238;9.126;2022-11-18T07:06:33;20.30;82.80
63047;DHT22;62025;39.238;9.126;2022-11-18T07:09:01;20.20;83.00
63047;DHT22;62025;39.238;9.126;2022-11-18T07:11:28;20.20;82.90
63047;DHT22;62025;39.238;9.126;2022-11-18T07:13:55;20.50;81.40
63047;DHT22;62025;39.238;9.126;2022-11-18T07:16:25;20.70;79.50
63047;DHT22;62025;39.238;9.126;2022-11-18T07:18:52;20.80;78.00
63047;DHT22;62025;39.238;9.126;2022-11-18T07:21:24;20.90;77.60
63047;DHT22;62025;39.238;9.126;2022-11-18T07:23:51;21.00;76.50
63047;DHT22;62025;39.238;9.126;2022-11-18T07:26:18;21.10;75.90
63047;DHT22;62025;39.238;9.126;2022-11-18T07:28:44;21.20;75.20
63047;DHT22;62025;39.238;9.126;2022-11-18T07:31:12;21.20;74.30
63047;DHT22;62025;39.238;9.126;2022-11-18T07:33:41;21.40;74.00
63047;DHT22;62025;39.238;9.126;2022-11-18T07:36:17;21.40;73.50
63047;DHT22;62025;39.238;9.126;2022-11-18T07:38:45;21.50;73.50
63047;DHT22;62025;39.238;9.126;2022-11-18T07:41:14;21.60;72.90
63047;DHT22;62025;39.238;9.126;2022-11-18T07:43:44;21.60;72.90
63047;DHT22;62025;39.238;9.126;2022-11-18T07:46:16;21.80;72.30
63047;DHT22;62025;39.238;9.126;2022-11-18T07:48:54;21.80;72.10
63047;DHT22;62025;39.238;9.126;2022-11-18T07:51:26;21.90;71.70
63047;DHT22;62025;39.238;9.126;2022-11-18T07:53:54;21.90;71.50
63047;DHT22;62025;39.238;9.126;2022-11-18T07:56:22;22.00;71.40
63047;DHT22;62025;39.238;9.126;2022-11-18T07:58:55;22.10;70.80
63047;DHT22;62025;39.238;9.126;2022-11-18T08:01:23;22.20;70.20
63047;DHT22;62025;39.238;9.126;2022-11-18T08:03:52;22.20;69.80
63047;DHT22;62025;39.238;9.126;2022-11-18T08:06:18;22.40;69.30
63047;DHT22;62025;39.238;9.126;2022-11-18T08:08:45;22.40;69.50
63047;DHT22;62025;39.238;9.126;2022-11-18T08:11:14;22.90;68.80
63047;DHT22;62025;39.238;9.126;2022-11-18T08:13:44;23.20;66.90
63047;DHT22;62025;39.238;9.126;2022-11-18T08:16:15;23.40;66.70
63047;DHT22;62025;39.238;9.126;2022-11-18T08:18:46;23.60;65.60
63047;DHT22;62025;39.238;9.126;2022-11-18T08:21:13;23.60;64.50
63047;DHT22;62025;39.238;9.126;2022-11-18T08:23:40;23.70;64.40
63047;DHT22;62025;39.238;9.126;2022-11-18T08:26:13;23.90;63.80
63047;DHT22;62025;39.238;9.126;2022-11-18T08:28:40;24.10;63.70
63047;DHT22;62025;39.238;9.126;2022-11-18T08:31:12;24.20;63.20
63047;DHT22;62025;39.238;9.126;2022-11-18T08:33:40;24.30;63.20
63047;DHT22;62025;39.238;9.126;2022-11-18T08:36:13;24.40;63.00
63047;DHT22;62025;39.238;9.126;2022-11-18T08:38:41;24.50;62.60
63047;DHT22;62025;39.238;9.126;2022-11-18T08:41:11;24.40;62.80
63047;DHT22;62025;39.238;9.126;2022-11-18T08:43:38;24.30;63.20
63047;DHT22;62025;39.238;9.126;2022-11-18T08:46:04;24.40;63.30
63047;DHT22;62025;39.238;9.126;2022-11-18T08:48:30;24.40;62.90
63047;DHT22;62025;39.238;9.126;2022-11-18T08:50:57;24.40;62.70
63047;DHT22;62025;39.238;9.126;2022-11-18T08:53:24;24.60;62.40
63047;DHT22;62025;39.238;9.126;2022-11-18T08:55:57;24.70;62.10
63047;DHT22;62025;39.238;9.126;2022-11-18T08:58:25;24.90;61.80
63047;DHT22;62025;39.238;9.126;2022-11-18T09:00:51;24.90;61.40
63047;DHT22;62025;39.238;9.126;2022-11-18T09:03:18;24.90;61.60
63047;DHT22;62025;39.238;9.126;2022-11-18T09:05:44;24.90;61.50
63047;DHT22;62025;39.238;9.126;2022-11-18T09:08:10;25.00;60.80
63047;DHT22;62025;39.238;9.126;2022-11-18T09:10:37;25.00;60.20
63047;DHT22;62025;39.238;9.126;2022-11-18T09:13:03;24.90;60.60
63047;DHT22;62025;39.238;9.126;2022-11-18T09:15:30;25.00;59.90
63047;DHT22;62025;39.238;9.126;2022-11-18T09:17:56;25.00;59.70
63047;DHT22;62025;39.238;9.126;2022-11-18T09:20:23;25.10;59.50
63047;DHT22;62025;39.238;9.126;2022-11-18T09:22:49;25.10;59.30
63047;DHT22;62025;39.238;9.126;2022-11-18T09:25:15;25.10;59.10
63047;DHT22;62025;39.238;9.126;2022-11-18T09:27:41;25.00;59.40
63047;DHT22;62025;39.238;9.126;2022-11-18T09:30:08;25.10;59.20
63047;DHT22;62025;39.238;9.126;2022-11-18T09:32:34;25.10;58.70
63047;DHT22;62025;39.238;9.126;2022-11-18T09:35:00;25.10;58.80
63047;DHT22;62025;39.238;9.126;2022-11-18T09:37:26;25.20;58.80
63047;DHT22;62025;39.238;9.126;2022-11-18T09:39:52;25.10;58.40
63047;DHT22;62025;39.238;9.126;2022-11-18T09:45:43;25.10;57.80
63047;DHT22;62025;39.238;9.126;2022-11-18T09:48:21;25.10;57.70
63047;DHT22;62025;39.238;9.126;2022-11-18T09:51:11;25.10;57.80
63047;DHT22;62025;39.238;9.126;2022-11-18T09:53:40;25.10;57.20
63047;DHT22;62025;39.238;9.126;2022-11-18T09:56:15;25.10;57.60
63047;DHT22;62025;39.238;9.126;2022-11-18T09:58:42;25.10;57.60
63047;DHT22;62025;39.238;9.126;2022-11-18T10:01:16;25.00;57.00
63047;DHT22;62025;39.238;9.126;2022-11-18T10:03:42;24.90;57.10
63047;DHT22;62025;39.238;9.126;2022-11-18T10:08:52;24.70;56.90
63047;DHT22;62025;39.238;9.126;2022-11-18T10:11:30;24.80;56.80
63047;DHT22;62025;39.238;9.126;2022-11-18T10:17:53;24.10;57.30
63047;DHT22;62025;39.238;9.126;2022-11-18T10:20:58;23.80;57.90
63047;DHT22;62025;39.238;9.126;2022-11-18T10:23:52;23.90;57.40
63047;DHT22;62025;39.238;9.126;2022-11-18T10:26:36;23.70;58.30
63047;DHT22;62025;39.238;9.126;2022-11-18T10:29:06;23.70;58.70
63047;DHT22;62025;39.238;9.126;2022-11-18T10:32:03;23.60;58.20
63047;DHT22;62025;39.238;9.126;2022-11-18T10:34:31;23.60;58.30
63047;DHT22;62025;39.238;9.126;2022-11-18T10:37:09;23.50;58.10
63047;DHT22;62025;39.238;9.126;2022-11-18T10:39:54;23.40;58.30
63047;DHT22;62025;39.238;9.126;2022-11-18T10:48:08;23.20;58.40
63047;DHT22;62025;39.238;9.126;2022-11-18T10:50:44;23.10;59.10
63047;DHT22;62025;39.238;9.126;2022-11-18T10:53:37;23.20;58.80
63047;DHT22;62025;39.238;9.126;2022-11-18T10:56:06;23.10;58.50
63047;DHT22;62025;39.238;9.126;2022-11-18T10:58:35;23.10;58.40
63047;DHT22;62025;39.238;9.126;2022-11-18T11:01:20;23.10;58.00
63047;DHT22;62025;39.238;9.126;2022-11-18T11:04:02;23.10;57.50
63047;DHT22;62025;39.238;9.126;2022-11-18T11:06:44;23.00;57.10
63047;DHT22;62025;39.238;9.126;2022-11-18T11:11:55;22.90;57.80
63047;DHT22;62025;39.238;9.126;2022-11-18T11:14:47;22.90;57.10
63047;DHT22;62025;39.238;9.126;2022-11-18T11:20:21;22.80;57.80
63047;DHT22;62025;39.238;9.126;2022-11-18T11:22:48;22.80;58.00
63047;DHT22;62025;39.238;9.126;2022-11-18T11:25:17;22.70;58.00
63047;DHT22;62025;39.238;9.126;2022-11-18T11:28:02;22.70;58.40
63047;DHT22;62025;39.238;9.126;2022-11-18T11:30:39;22.70;57.80
63047;DHT22;62025;39.238;9.126;2022-11-18T11:33:32;22.70;57.60
63047;DHT22;62025;39.238;9.126;2022-11-18T11:36:12;22.60;56.90
63047;DHT22;62025;39.238;9.126;2022-11-18T11:39:43;22.50;56.50
63047;DHT22;62025;39.238;9.126;2022-11-18T11:47:35;22.40;56.10
63047;DHT22;62025;39.238;9.126;2022-11-18T11:56:48;22.40;57.70
63047;DHT22;62025;39.238;9.126;2022-11-18T12:08:15;22.40;58.80
63047;DHT22;62025;39.238;9.126;2022-11-18T12:14:18;22.30;57.60
63047;DHT22;62025;39.238;9.126;2022-11-18T12:16:58;22.20;58.00
63047;DHT22;62025;39.238;9.126;2022-11-18T12:19:36;22.10;57.70
63047;DHT22;62025;39.238;9.126;2022-11-18T12:22:04;22.20;58.30
63047;DHT22;62025;39.238;9.126;2022-11-18T12:24:34;22.20;58.50
63047;DHT22;62025;39.238;9.126;2022-11-18T12:29:43;22.20;59.40
63047;DHT22;62025;39.238;9.126;2022-11-18T12:32:38;22.10;59.70
63047;DHT22;62025;39.238;9.126;2022-11-18T12:40:35;22.00;59.80
63047;DHT22;62025;39.238;9.126;2022-11-18T12:43:02;22.00;59.90
63047;DHT22;62025;39.238;9.126;2022-11-18T12:45:54;22.00;60.30
63047;DHT22;62025;39.238;9.126;2022-11-18T12:48:39;22.00;59.80
63047;DHT22;62025;39.238;9.126;2022-11-18T12:53:43;21.90;58.80
63047;DHT22;62025;39.238;9.126;2022-11-18T12:58:48;21.90;58.90
63047;DHT22;62025;39.238;9.126;2022-11-18T13:01:26;21.90;59.40
63047;DHT22;62025;39.238;9.126;2022-11-18T13:04:12;21.90;57.80
63047;DHT22;62025;39.238;9.126;2022-11-18T13:06:40;21.90;57.70
63047;DHT22;62025;39.238;9.126;2022-11-18T13:09:38;21.80;57.00
63047;DHT22;62025;39.238;9.126;2022-11-18T13:12:06;21.90;57.20
63047;DHT22;62025;39.238;9.126;2022-11-18T13:14:40;21.90;57.70
63047;DHT22;62025;39.238;9.126;2022-11-18T13:17:31;21.90;57.30
63047;DHT22;62025;39.238;9.126;2022-11-18T13:20:24;21.90;57.00
63047;DHT22;62025;39.238;9.126;2022-11-18T13:23:44;21.90;57.20
63047;DHT22;62025;39.238;9.126;2022-11-18T13:26:31;21.80;56.60
63047;DHT22;62025;39.238;9.126;2022-11-18T13:34:46;21.80;56.80
63047;DHT22;62025;39.238;9.126;2022-11-18T13:37:17;21.90;57.90
63047;DHT22;62025;39.238;9.126;2022-11-18T13:39:46;21.90;58.00
63047;DHT22;62025;39.238;9.126;2022-11-18T13:42:20;21.80;58.40
63047;DHT22;62025;39.238;9.126;2022-11-18T13:45:01;21.90;58.70
63047;DHT22;62025;39.238;9.126;2022-11-18T13:47:39;21.90;58.60
63047;DHT22;62025;39.238;9.126;2022-11-18T13:50:24;21.80;58.50
63047;DHT22;62025;39.238;9.126;2022-11-18T13:58:36;21.70;57.20
63047;DHT22;62025;39.238;9.126;2022-11-18T14:01:16;21.70;56.90
63047;DHT22;62025;39.238;9.126;2022-11-18T14:03:56;21.70;57.10
63047;DHT22;62025;39.238;9.126;2022-11-18T14:06:24;21.60;55.90
63047;DHT22;62025;39.238;9.126;2022-11-18T14:09:23;21.60;56.30
63047;DHT22;62025;39.238;9.126;2022-11-18T14:12:19;21.60;55.70
63047;DHT22;62025;39.238;9.126;2022-11-18T14:14:47;21.60;54.50
63047;DHT22;62025;39.238;9.126;2022-11-18T14:17:33;21.40;53.60
63047;DHT22;62025;39.238;9.126;2022-11-18T14:20:06;21.50;53.60
63047;DHT22;62025;39.238;9.126;2022-11-18T14:22:41;21.50;54.00
63047;DHT22;62025;39.238;9.126;2022-11-18T14:25:18;21.40;53.60
63047;DHT22;62025;39.238;9.126;2022-11-18T14:27:56;21.40;54.00
63047;DHT22;62025;39.238;9.126;2022-11-18T14:30:38;21.40;54.90
63047;DHT22;62025;39.238;9.126;2022-11-18T14:33:14;21.40;54.50
63047;DHT22;62025;39.238;9.126;2022-11-18T14:35:54;21.40;54.70
63047;DHT22;62025;39.238;9.126;2022-11-18T14:41:13;21.40;55.20
63047;DHT22;62025;39.238;9.126;2022-11-18T14:43:41;21.40;55.30
63047;DHT22;62025;39.238;9.126;2022-11-18T14:46:17;21.40;55.20
63047;DHT22;62025;39.238;9.126;2022-11-18T14:48:44;21.40;54.40
63047;DHT22;62025;39.238;9.126;2022-11-18T14:51:12;21.30;54.60
63047;DHT22;62025;39.238;9.126;2022-11-18T14:53:40;21.30;54.50
63047;DHT22;62025;39.238;9.126;2022-11-18T14:56:27;21.30;53.70
63047;DHT22;62025;39.238;9.126;2022-11-18T14:58:54;21.30;53.70
63047;DHT22;62025;39.238;9.126;2022-11-18T15:01:21;21.10;52.60
63047;DHT22;62025;39.238;9.126;2022-11-18T15:03:52;21.10;52.60
63047;DHT22;62025;39.238;9.126;2022-11-18T15:06:19;21.10;53.40
63047;DHT22;62025;39.238;9.126;2022-11-18T15:08:48;21.10;54.00
63047;DHT22;62025;39.238;9.126;2022-11-18T15:11:15;21.10;55.00
63047;DHT22;62025;39.238;9.126;2022-11-18T15:13:44;21.10;54.70
63047;DHT22;62025;39.238;9.126;2022-11-18T15:18:44;21.00;55.40
63047;DHT22;62025;39.238;9.126;2022-11-18T15:21:12;21.10;55.90
63047;DHT22;62025;39.238;9.126;2022-11-18T15:23:38;21.00;55.90
63047;DHT22;62025;39.238;9.126;2022-11-18T15:26:20;21.00;56.10
63047;DHT22;62025;39.238;9.126;2022-11-18T15:28:52;21.00;56.70
63047;DHT22;62025;39.238;9.126;2022-11-18T15:31:21;21.00;56.90
63047;DHT22;62025;39.238;9.126;2022-11-18T15:33:48;20.90;57.10
63047;DHT22;62025;39.238;9.126;2022-11-18T15:36:23;20.90;57.30
63047;DHT22;62025;39.238;9.126;2022-11-18T15:38:52;20.90;57.90
63047;DHT22;62025;39.238;9.126;2022-11-18T15:41:23;20.90;57.90
63047;DHT22;62025;39.238;9.126;2022-11-18T15:43:52;20.90;58.20
63047;DHT22;62025;39.238;9.126;2022-11-18T15:46:21;20.90;59.00
63047;DHT22;62025;39.238;9.126;2022-11-18T15:48:53;20.90;60.10
63047;DHT22;62025;39.238;9.126;2022-11-18T15:51:20;20.80;60.90
63047;DHT22;62025;39.238;9.126;2022-11-18T15:53:47;20.80;61.50
63047;DHT22;62025;39.238;9.126;2022-11-18T15:58:51;20.60;62.30
63047;DHT22;62025;39.238;9.126;2022-11-18T16:01:26;20.60;62.80
63047;DHT22;62025;39.238;9.126;2022-11-18T16:03:53;20.60;63.40
63047;DHT22;62025;39.238;9.126;2022-11-18T16:06:20;20.60;63.80
63047;DHT22;62025;39.238;9.126;2022-11-18T16:08:46;20.50;64.00
63047;DHT22;62025;39.238;9.126;2022-11-18T16:11:14;20.50;64.20
63047;DHT22;62025;39.238;9.126;2022-11-18T16:14:03;20.50;64.30
63047;DHT22;62025;39.238;9.126;2022-11-18T16:16:32;20.40;64.20
63047;DHT22;62025;39.238;9.126;2022-11-18T16:19:00;20.40;64.20
63047;DHT22;62025;39.238;9.126;2022-11-18T16:21:30;20.40;64.20
63047;DHT22;62025;39.238;9.126;2022-11-18T16:23:59;20.40;64.40
63047;DHT22;62025;39.238;9.126;2022-11-18T16:26:28;20.30;64.50
63047;DHT22;62025;39.238;9.126;2022-11-18T16:28:57;20.40;64.50
63047;DHT22;62025;39.238;9.126;2022-11-18T16:31:24;20.40;64.40
63047;DHT22;62025;39.238;9.126;2022-11-18T16:34:17;20.40;64.70
63047;DHT22;62025;39.238;9.126;2022-11-18T16:36:49;20.40;64.50
63047;DHT22;62025;39.238;9.126;2022-11-18T16:39:18;20.30;64.60
63047;DHT22;62025;39.238;9.126;2022-11-18T16:41:50;20.30;64.80
63047;DHT22;62025;39.238;9.126;2022-11-18T16:44:17;20.30;64.50
63047;DHT22;62025;39.238;9.126;2022-11-18T16:46:52;20.20;64.80
63047;DHT22;62025;39.238;9.126;2022-11-18T16:49:22;20.20;64.90
63047;DHT22;62025;39.238;9.126;2022-11-18T16:51:51;20.30;65.00
63047;DHT22;62025;39.238;9.126;2022-11-18T16:54:22;20.20;65.30
63047;DHT22;62025;39.238;9.126;2022-11-18T16:56:49;20.10;65.40
63047;DHT22;62025;39.238;9.126;2022-11-18T16:59:22;20.10;65.60
63047;DHT22;62025;39.238;9.126;2022-11-18T17:01:50;20.00;65.70
63047;DHT22;62025;39.238;9.126;2022-11-18T17:04:18;20.00;65.70
63047;DHT22;62025;39.238;9.126;2022-11-18T17:06:46;20.00;65.50
63047;DHT22;62025;39.238;9.126;2022-11-18T17:09:17;20.00;65.50
63047;DHT22;62025;39.238;9.126;2022-11-18T17:11:44;20.00;65.40
63047;DHT22;62025;39.238;9.126;2022-11-18T17:14:11;19.90;65.60
63047;DHT22;62025;39.238;9.126;2022-11-18T17:16:37;19.90;65.60
63047;DHT22;62025;39.238;9.126;2022-11-18T17:19:03;19.90;65.40
63047;DHT22;62025;39.238;9.126;2022-11-18T17:21:30;19.90;65.20
63047;DHT22;62025;39.238;9.126;2022-11-18T17:23:57;20.00;65.00
63047;DHT22;62025;39.238;9.126;2022-11-18T17:26:26;20.00;64.90
63047;DHT22;62025;39.238;9.126;2022-11-18T17:28:54;19.90;65.30
63047;DHT22;62025;39.238;9.126;2022-11-18T17:31:21;19.90;64.90
63047;DHT22;62025;39.238;9.126;2022-11-18T17:33:50;19.90;64.60
63047;DHT22;62025;39.238;9.126;2022-11-18T17:36:17;19.90;64.90
63047;DHT22;62025;39.238;9.126;2022-11-18T17:38:47;19.90;64.90
63047;DHT22;62025;39.238;9.126;2022-11-18T17:41:17;19.90;65.00
63047;DHT22;62025;39.238;9.126;2022-11-18T17:44:04;19.90;64.90
63047;DHT22;62025;39.238;9.126;2022-11-18T17:46:32;19.90;64.70
63047;DHT22;62025;39.238;9.126;2022-11-18T17:49:00;19.90;65.00